createdAt,value
2016-12-21T00:00:55.067Z,0
2016-12-21T00:01:55.029Z,0
2016-12-21T00:02:54.684Z,0
2016-12-21T00:03:54.337Z,0
2016-12-21T00:04:54.597Z,0
2016-12-21T00:05:54.556Z,0
2016-12-21T00:06:54.815Z,0
2016-12-21T00:07:54.473Z,0
2016-12-21T00:08:54.730Z,0
2016-12-21T00:09:54.418Z,0
2016-12-21T00:10:54.646Z,0
2016-12-21T00:11:54.306Z,0
2016-12-21T00:12:54.560Z,0
2016-12-21T00:13:54.551Z,0
2016-12-21T00:14:54.179Z,0
2016-12-21T00:15:54.433Z,0
2016-12-21T00:16:53.791Z,0
2016-12-21T00:17:54.366Z,0
2016-12-21T00:18:54.005Z,0
2016-12-21T00:19:54.276Z,0
2016-12-21T00:20:53.923Z,0
2016-12-21T00:21:54.181Z,0
2016-12-21T00:22:54.140Z,0
2016-12-21T00:23:53.824Z,0
2016-12-21T00:24:54.056Z,0
2016-12-21T00:25:54.038Z,0
2016-12-21T00:26:53.671Z,0
2016-12-21T00:27:53.929Z,0
2016-12-21T00:28:53.589Z,0
2016-12-21T00:29:53.841Z,0
2016-12-21T00:30:53.198Z,0
2016-12-21T00:31:53.757Z,0
2016-12-21T00:32:53.418Z,0
2016-12-21T00:33:53.376Z,0
2016-12-21T00:34:53.330Z,0
2016-12-21T00:35:53.289Z,0
2016-12-21T00:36:53.246Z,0
2016-12-21T00:37:53.508Z,0
2016-12-21T00:38:52.858Z,0
2016-12-21T00:39:53.121Z,0
2016-12-21T00:40:53.378Z,0
2016-12-21T00:41:53.341Z,0
2016-12-21T00:42:53.293Z,0
2016-12-21T00:43:53.248Z,0
2016-12-21T00:44:52.906Z,0
2016-12-21T00:45:52.877Z,0
2016-12-21T00:46:53.120Z,0
2016-12-21T00:47:52.803Z,0
2016-12-21T00:48:53.040Z,0
2016-12-21T00:49:52.696Z,0
2016-12-21T00:50:52.660Z,0
2016-12-21T00:51:52.911Z,0
2016-12-21T00:52:52.579Z,0
2016-12-21T00:53:52.527Z,0
2016-12-21T00:54:52.487Z,0
2016-12-21T00:55:52.440Z,0
2016-12-21T00:56:52.402Z,0
2016-12-21T00:57:52.657Z,0
2016-12-21T00:58:52.014Z,0
2016-12-21T00:59:52.580Z,0
2016-12-21T01:00:52.232Z,0
2016-12-21T01:01:51.887Z,0
2016-12-21T01:02:52.449Z,0
2016-12-21T01:03:51.802Z,0
2016-12-21T01:04:52.062Z,0
2016-12-21T01:05:52.024Z,0
2016-12-21T01:06:52.276Z,0
2016-12-21T01:07:51.934Z,0
2016-12-21T01:08:51.893Z,0
2016-12-21T01:09:52.152Z,0
2016-12-21T01:10:51.807Z,0
2016-12-21T01:11:51.773Z,0
2016-12-21T01:12:51.419Z,0
2016-12-21T01:13:51.986Z,0
2016-12-21T01:14:51.639Z,0
2016-12-21T01:15:51.295Z,0
2016-12-21T01:16:51.551Z,0
2016-12-21T01:17:51.817Z,0
2016-12-21T01:18:51.779Z,0
2016-12-21T01:19:51.426Z,0
2016-12-21T01:20:51.685Z,0
2016-12-21T01:21:51.642Z,0
2016-12-21T01:22:51.600Z,0
2016-12-21T01:23:51.558Z,0
2016-12-21T01:24:51.218Z,0
2016-12-21T01:25:51.171Z,0
2016-12-21T01:26:51.130Z,0
2016-12-21T01:27:51.086Z,0
2016-12-21T01:28:50.739Z,0
2016-12-21T01:29:51.008Z,0
2016-12-21T01:30:51.261Z,0
2016-12-21T01:31:50.917Z,0
2016-12-21T01:32:50.881Z,0
2016-12-21T01:33:50.830Z,0
2016-12-21T01:34:50.790Z,0
2016-12-21T01:35:50.748Z,0
2016-12-21T01:36:51.012Z,0
2016-12-21T01:37:50.665Z,0
2016-12-21T01:38:50.623Z,0
2016-12-21T01:39:50.581Z,0
2016-12-21T01:40:50.841Z,0
2016-12-21T01:41:50.794Z,0
2016-12-21T01:42:50.754Z,0
2016-12-21T01:43:50.106Z,0
2016-12-21T01:44:50.666Z,0
2016-12-21T01:45:50.330Z,0
2016-12-21T01:46:50.621Z,0
2016-12-21T01:47:50.239Z,0
2016-12-21T01:48:50.500Z,0
2016-12-21T01:49:50.151Z,0
2016-12-21T01:50:50.120Z,0
2016-12-21T01:51:50.382Z,0
2016-12-21T01:52:49.731Z,0
2016-12-21T01:53:50.288Z,0
2016-12-21T01:54:49.641Z,0
2016-12-21T01:55:50.202Z,0
2016-12-21T01:56:50.164Z,0
2016-12-21T01:57:50.121Z,0
2016-12-21T01:58:50.070Z,0
2016-12-21T01:59:49.736Z,0
2016-12-21T02:00:49.989Z,0
2016-12-21T02:01:49.664Z,0
2016-12-21T02:02:49.312Z,0
2016-12-21T02:03:49.862Z,0
2016-12-21T02:04:49.551Z,0
2016-12-21T02:05:49.482Z,0
2016-12-21T02:06:49.434Z,0
2016-12-21T02:07:49.391Z,0
2016-12-21T02:08:49.384Z,0
2016-12-21T02:09:49.309Z,0
2016-12-21T02:10:49.269Z,0
2016-12-21T02:11:49.223Z,0
2016-12-21T02:12:49.182Z,0
2016-12-21T02:13:49.438Z,0
2016-12-21T02:14:49.099Z,0
2016-12-21T02:15:49.361Z,0
2016-12-21T02:16:49.312Z,0
2016-12-21T02:17:49.267Z,0
2016-12-21T02:18:48.924Z,0
2016-12-21T02:19:49.185Z,0
2016-12-21T02:20:48.539Z,0
2016-12-21T02:21:49.103Z,0
2016-12-21T02:22:48.757Z,0
2016-12-21T02:23:48.713Z,0
2016-12-21T02:24:48.070Z,0
2016-12-21T02:25:48.934Z,0
2016-12-21T02:26:48.884Z,0
2016-12-21T02:27:48.541Z,0
2016-12-21T02:28:48.797Z,0
2016-12-21T02:29:48.760Z,0
2016-12-21T02:30:48.713Z,0
2016-12-21T02:31:48.373Z,0
2016-12-21T02:32:48.326Z,0
2016-12-21T02:33:48.589Z,0
2016-12-21T02:34:48.243Z,0
2016-12-21T02:35:48.197Z,0
2016-12-21T02:36:48.462Z,0
2016-12-21T02:37:48.423Z,0
2016-12-21T02:38:48.376Z,0
2016-12-21T02:39:48.037Z,0
2016-12-21T02:40:48.295Z,0
2016-12-21T02:41:47.947Z,0
2016-12-21T02:42:47.902Z,0
2016-12-21T02:43:48.165Z,0
2016-12-21T02:44:47.517Z,0
2016-12-21T02:45:47.777Z,0
2016-12-21T02:46:48.036Z,0
2016-12-21T02:47:47.691Z,0
2016-12-21T02:48:47.954Z,0
2016-12-21T02:49:47.910Z,0
2016-12-21T02:50:47.865Z,0
2016-12-21T02:51:47.827Z,0
2016-12-21T02:52:47.783Z,0
2016-12-21T02:53:47.740Z,0
2016-12-21T02:54:47.691Z,0
2016-12-21T02:55:47.354Z,0
2016-12-21T02:56:47.618Z,0
2016-12-21T02:57:46.966Z,0
2016-12-21T02:58:47.528Z,0
2016-12-21T02:59:47.484Z,0
2016-12-21T03:00:47.442Z,0
2016-12-21T03:01:47.401Z,0
2016-12-21T03:02:47.361Z,0
2016-12-21T03:03:47.012Z,0
2016-12-21T03:04:46.966Z,0
2016-12-21T03:05:47.225Z,0
2016-12-21T03:06:46.883Z,0
2016-12-21T03:07:46.844Z,0
2016-12-21T03:08:46.801Z,0
2016-12-21T03:09:46.769Z,0
2016-12-21T03:10:47.018Z,0
2016-12-21T03:11:46.069Z,0
2016-12-21T03:12:46.335Z,0
2016-12-21T03:13:46.893Z,0
2016-12-21T03:14:46.543Z,0
2016-12-21T03:15:46.501Z,0
2016-12-21T03:16:46.765Z,0
2016-12-21T03:17:46.719Z,0
2016-12-21T03:18:46.074Z,0
2016-12-21T03:19:46.642Z,0
2016-12-21T03:20:46.588Z,0
2016-12-21T03:21:46.548Z,0
2016-12-21T03:22:46.203Z,0
2016-12-21T03:23:45.855Z,0
2016-12-21T03:24:45.821Z,0
2016-12-21T03:25:46.381Z,0
2016-12-21T03:26:46.042Z,0
2016-12-21T03:27:45.989Z,0
2016-12-21T03:28:46.253Z,0
2016-12-21T03:29:46.206Z,0
2016-12-21T03:30:46.166Z,0
2016-12-21T03:31:46.150Z,0
2016-12-21T03:32:46.078Z,0
2016-12-21T03:33:46.037Z,0
2016-12-21T03:34:45.993Z,0
2016-12-21T03:35:45.946Z,0
2016-12-21T03:36:45.908Z,0
2016-12-21T03:37:45.865Z,0
2016-12-21T03:38:45.521Z,0
2016-12-21T03:39:45.479Z,0
2016-12-21T03:40:45.437Z,0
2016-12-21T03:41:45.700Z,0
2016-12-21T03:42:45.346Z,0
2016-12-21T03:43:45.312Z,0
2016-12-21T03:44:45.263Z,0
2016-12-21T03:45:45.528Z,0
2016-12-21T03:46:45.180Z,0
2016-12-21T03:47:44.835Z,0
2016-12-21T03:48:44.794Z,0
2016-12-21T03:49:45.054Z,0
2016-12-21T03:50:45.011Z,0
2016-12-21T03:51:45.270Z,0
2016-12-21T03:52:45.236Z,0
2016-12-21T03:53:44.879Z,0
2016-12-21T03:54:45.142Z,0
2016-12-21T03:55:44.802Z,0
2016-12-21T03:56:44.456Z,0
2016-12-21T03:57:44.734Z,0
2016-12-21T03:58:44.673Z,0
2016-12-21T03:59:44.932Z,0
2016-12-21T04:00:44.918Z,0
2016-12-21T04:01:44.544Z,0
2016-12-21T04:02:44.800Z,0
2016-12-21T04:03:44.761Z,0
2016-12-21T04:04:44.718Z,0
2016-12-21T04:05:44.677Z,0
2016-12-21T04:06:44.632Z,0
2016-12-21T04:07:44.585Z,0
2016-12-21T04:08:44.551Z,0
2016-12-21T04:09:44.203Z,0
2016-12-21T04:10:43.859Z,0
2016-12-21T04:11:44.417Z,0
2016-12-21T04:12:44.077Z,0
2016-12-21T04:13:44.032Z,0
2016-12-21T04:14:44.300Z,0
2016-12-21T04:15:44.249Z,0
2016-12-21T04:16:43.910Z,0
2016-12-21T04:17:44.165Z,0
2016-12-21T04:18:43.819Z,0
2016-12-21T04:19:44.077Z,0
2016-12-21T04:20:43.733Z,0
2016-12-21T04:21:43.695Z,0
2016-12-21T04:22:43.952Z,0
2016-12-21T04:23:43.908Z,0
2016-12-21T04:24:43.563Z,0
2016-12-21T04:25:43.525Z,0
2016-12-21T04:26:43.475Z,0
2016-12-21T04:27:43.133Z,0
2016-12-21T04:28:43.698Z,0
2016-12-21T04:29:43.349Z,0
2016-12-21T04:30:43.607Z,0
2016-12-21T04:31:43.575Z,0
2016-12-21T04:32:43.522Z,0
2016-12-21T04:33:43.480Z,0
2016-12-21T04:34:42.850Z,0
2016-12-21T04:35:43.398Z,0
2016-12-21T04:36:43.364Z,0
2016-12-21T04:37:43.016Z,0
2016-12-21T04:38:42.968Z,0
2016-12-21T04:39:42.920Z,0
2016-12-21T04:40:42.583Z,0
2016-12-21T04:41:42.845Z,0
2016-12-21T04:42:43.101Z,0
2016-12-21T04:43:42.755Z,0
2016-12-21T04:44:43.019Z,0
2016-12-21T04:45:42.369Z,0
2016-12-21T04:46:42.635Z,0
2016-12-21T04:47:42.584Z,0
2016-12-21T04:48:56.846Z,0
2016-12-21T04:49:42.808Z,0
2016-12-21T04:50:42.459Z,0
2016-12-21T04:51:42.418Z,0
2016-12-21T04:52:42.384Z,0
2016-12-21T04:53:42.632Z,0
2016-12-21T04:54:42.292Z,0
2016-12-21T04:55:42.243Z,0
2016-12-21T04:56:42.507Z,0
2016-12-21T04:57:42.159Z,0
2016-12-21T04:58:42.417Z,0
2016-12-21T04:59:42.077Z,0
2016-12-21T05:00:42.335Z,0
2016-12-21T05:01:41.993Z,0
2016-12-21T05:02:41.648Z,0
2016-12-21T05:03:41.905Z,0
2016-12-21T05:04:42.174Z,0
2016-12-21T05:05:41.524Z,0
2016-12-21T05:06:41.469Z,0
2016-12-21T05:07:42.040Z,0
2016-12-21T05:08:41.689Z,0
2016-12-21T05:09:41.648Z,0
2016-12-21T05:10:41.607Z,0
2016-12-21T05:11:41.596Z,0
2016-12-21T05:12:41.224Z,0
2016-12-21T05:13:41.473Z,0
2016-12-21T05:14:41.736Z,0
2016-12-21T05:15:41.394Z,0
2016-12-21T05:16:41.349Z,0
2016-12-21T05:17:41.615Z,0
2016-12-21T05:18:41.572Z,0
2016-12-21T05:19:41.524Z,0
2016-12-21T05:20:41.180Z,0
2016-12-21T05:21:41.436Z,0
2016-12-21T05:22:41.398Z,0
2016-12-21T05:23:41.045Z,0
2016-12-21T05:24:41.014Z,0
2016-12-21T05:25:41.270Z,0
2016-12-21T05:26:40.921Z,0
2016-12-21T05:27:41.180Z,0
2016-12-21T05:28:40.840Z,0
2016-12-21T05:29:41.095Z,0
2016-12-21T05:30:40.751Z,0
2016-12-21T05:31:40.711Z,0
2016-12-21T05:32:40.674Z,0
2016-12-21T05:33:40.933Z,0
2016-12-21T05:34:40.888Z,0
2016-12-21T05:35:40.537Z,0
2016-12-21T05:36:40.800Z,0
2016-12-21T05:37:39.852Z,0
2016-12-21T05:38:40.412Z,0
2016-12-21T05:39:40.070Z,0
2016-12-21T05:40:40.637Z,0
2016-12-21T05:41:39.985Z,0
2016-12-21T05:42:40.544Z,0
2016-12-21T05:43:40.500Z,0
2016-12-21T05:44:40.456Z,0
2016-12-21T05:45:39.813Z,0
2016-12-21T05:46:40.075Z,0
2016-12-21T05:47:40.035Z,0
2016-12-21T05:48:40.288Z,0
2016-12-21T05:49:40.248Z,0
2016-12-21T05:50:39.902Z,0
2016-12-21T05:51:39.862Z,0
2016-12-21T05:52:40.118Z,0
2016-12-21T05:53:40.083Z,0
2016-12-21T05:54:40.036Z,0
2016-12-21T05:55:39.688Z,0
2016-12-21T05:56:39.944Z,0
2016-12-21T05:57:39.598Z,0
2016-12-21T05:58:39.558Z,0
2016-12-21T05:59:39.816Z,0
2016-12-21T06:00:39.782Z,0
2016-12-21T06:01:39.442Z,0
2016-12-21T06:02:39.702Z,0
2016-12-21T06:03:39.647Z,0
2016-12-21T06:04:39.307Z,0
2016-12-21T06:05:39.262Z,0
2016-12-21T06:06:39.216Z,0
2016-12-21T06:07:39.181Z,0
2016-12-21T06:08:39.432Z,0
2016-12-21T06:09:39.087Z,0
2016-12-21T06:10:39.050Z,0
2016-12-21T06:11:39.007Z,0
2016-12-21T06:12:38.665Z,0
2016-12-21T06:13:38.920Z,0
2016-12-21T06:14:38.879Z,0
2016-12-21T06:15:39.135Z,0
2016-12-21T06:16:39.102Z,0
2016-12-21T06:17:38.748Z,0
2016-12-21T06:18:39.012Z,0
2016-12-21T06:19:38.362Z,0
2016-12-21T06:20:38.618Z,0
2016-12-21T06:21:38.882Z,0
2016-12-21T06:22:38.839Z,0
2016-12-21T06:23:38.798Z,0
2016-12-21T06:24:38.458Z,0
2016-12-21T06:25:38.107Z,0
2016-12-21T06:26:38.365Z,0
2016-12-21T06:27:38.322Z,0
2016-12-21T06:28:38.278Z,0
2016-12-21T06:29:38.233Z,0
2016-12-21T06:30:38.490Z,0
2016-12-21T06:31:38.151Z,0
2016-12-21T06:32:38.410Z,0
2016-12-21T06:33:38.366Z,0
2016-12-21T06:34:37.722Z,0
2016-12-21T06:35:38.294Z,4
2016-12-21T06:36:37.938Z,4
2016-12-21T06:37:38.205Z,4
2016-12-21T06:38:37.888Z,0
2016-12-21T06:39:37.809Z,0
2016-12-21T06:40:37.471Z,4
2016-12-21T06:41:37.424Z,4
2016-12-21T06:42:37.985Z,4
2016-12-21T06:43:37.677Z,4
2016-12-21T06:44:37.900Z,4
2016-12-21T06:45:37.857Z,4
2016-12-21T06:46:37.211Z,4
2016-12-21T06:47:37.470Z,8
2016-12-21T06:48:37.427Z,8
2016-12-21T06:49:37.691Z,12
2016-12-21T06:50:37.652Z,12
2016-12-21T06:51:37.600Z,12
2016-12-21T06:52:37.562Z,16
2016-12-21T06:53:37.516Z,16
2016-12-21T06:54:37.469Z,16
2016-12-21T06:55:37.431Z,20
2016-12-21T06:56:37.089Z,24
2016-12-21T06:57:37.343Z,24
2016-12-21T06:58:37.000Z,28
2016-12-21T06:59:37.264Z,32
2016-12-21T07:00:37.216Z,36
2016-12-21T07:01:36.876Z,40
2016-12-21T07:02:37.138Z,48
2016-12-21T07:03:36.786Z,52
2016-12-21T07:04:36.748Z,56
2016-12-21T07:05:36.710Z,60
2016-12-21T07:06:36.971Z,68
2016-12-21T07:07:36.925Z,76
2016-12-21T07:08:36.271Z,80
2016-12-21T07:09:36.835Z,84
2016-12-21T07:10:36.797Z,88
2016-12-21T07:11:36.448Z,92
2016-12-21T07:12:36.707Z,96
2016-12-21T07:13:35.758Z,104
2016-12-21T07:14:36.617Z,112
2016-12-21T07:15:36.579Z,120
2016-12-21T07:16:36.235Z,124
2016-12-21T07:17:36.492Z,136
2016-12-21T07:18:35.849Z,152
2016-12-21T07:19:36.411Z,160
2016-12-21T07:20:35.762Z,168
2016-12-21T07:21:36.330Z,176
2016-12-21T07:22:36.277Z,184
2016-12-21T07:23:36.235Z,196
2016-12-21T07:24:36.199Z,204
2016-12-21T07:25:36.152Z,216
2016-12-21T07:26:36.113Z,224
2016-12-21T07:27:36.069Z,236
2016-12-21T07:28:35.429Z,248
2016-12-21T07:29:35.679Z,252
2016-12-21T07:30:35.638Z,268
2016-12-21T07:31:35.597Z,288
2016-12-21T07:32:35.252Z,304
2016-12-21T07:33:35.811Z,316
2016-12-21T07:34:35.468Z,324
2016-12-21T07:35:35.727Z,332
2016-12-21T07:36:35.380Z,348
2016-12-21T07:37:35.643Z,348
2016-12-21T07:38:35.308Z,348
2016-12-21T07:39:35.265Z,356
2016-12-21T07:40:35.513Z,388
2016-12-21T07:41:35.172Z,420
2016-12-21T07:42:35.130Z,428
2016-12-21T07:43:35.086Z,436
2016-12-21T07:44:35.044Z,456
2016-12-21T07:45:35.003Z,488
2016-12-21T07:46:34.959Z,520
2016-12-21T07:47:35.214Z,548
2016-12-21T07:48:35.172Z,564
2016-12-21T07:49:34.830Z,572
2016-12-21T07:50:35.095Z,572
2016-12-21T07:51:34.749Z,600
2016-12-21T07:52:34.707Z,612
2016-12-21T07:53:34.658Z,616
2016-12-21T07:54:34.315Z,636
2016-12-21T07:55:34.582Z,692
2016-12-21T07:56:34.532Z,716
2016-12-21T07:57:34.800Z,704
2016-12-21T07:58:34.753Z,708
2016-12-21T07:59:34.405Z,712
2016-12-21T08:00:34.368Z,720
2016-12-21T08:01:34.320Z,724
2016-12-21T08:02:34.282Z,716
2016-12-21T08:03:34.541Z,708
2016-12-21T08:04:34.196Z,736
2016-12-21T08:05:34.452Z,776
2016-12-21T08:06:33.503Z,812
2016-12-21T08:07:34.373Z,852
2016-12-21T08:08:34.325Z,868
2016-12-21T08:09:34.286Z,872
2016-12-21T08:10:34.240Z,848
2016-12-21T08:11:34.204Z,876
2016-12-21T08:12:33.855Z,940
2016-12-21T08:13:33.535Z,984
2016-12-21T08:14:34.075Z,1028
2016-12-21T08:15:34.028Z,1044
2016-12-21T08:16:33.385Z,984
2016-12-21T08:17:33.645Z,964
2016-12-21T08:18:33.603Z,1036
2016-12-21T08:19:33.865Z,1116
2016-12-21T08:20:33.818Z,1100
2016-12-21T08:21:33.478Z,1060
2016-12-21T08:22:33.733Z,1088
2016-12-21T08:23:33.390Z,1140
2016-12-21T08:24:33.345Z,1164
2016-12-21T08:25:33.610Z,1204
2016-12-21T08:26:33.261Z,1256
2016-12-21T08:27:33.219Z,1276
2016-12-21T08:28:32.876Z,1336
2016-12-21T08:29:32.531Z,1288
2016-12-21T08:30:33.391Z,1264
2016-12-21T08:31:33.049Z,1292
2016-12-21T08:32:32.704Z,1340
2016-12-21T08:33:33.270Z,1328
2016-12-21T08:34:33.227Z,1316
2016-12-21T08:35:32.883Z,1416
2016-12-21T08:36:33.145Z,1460
2016-12-21T08:37:32.791Z,1412
2016-12-21T08:38:32.752Z,1344
2016-12-21T08:39:32.107Z,1356
2016-12-21T08:40:32.974Z,1340
2016-12-21T08:41:32.626Z,1392
2016-12-21T08:42:32.284Z,1440
2016-12-21T08:43:32.237Z,1512
2016-12-21T08:44:32.521Z,1576
2016-12-21T08:45:32.458Z,1556
2016-12-21T08:46:32.722Z,1540
2016-12-21T08:47:32.070Z,1520
2016-12-21T08:48:32.020Z,1544
2016-12-21T08:49:32.293Z,1560
2016-12-21T08:50:32.547Z,1580
2016-12-21T08:51:31.901Z,1628
2016-12-21T08:52:32.459Z,1672
2016-12-21T08:53:31.814Z,1696
2016-12-21T08:54:32.073Z,1656
2016-12-21T08:55:32.337Z,1624
2016-12-21T08:56:32.296Z,1580
2016-12-21T08:57:32.247Z,1596
2016-12-21T08:58:31.931Z,1648
2016-12-21T08:59:31.862Z,1716
2016-12-21T09:00:31.819Z,1764
2016-12-21T09:01:32.081Z,1728
2016-12-21T09:02:31.438Z,1788
2016-12-21T09:03:31.699Z,1832
2016-12-21T09:04:31.981Z,1864
2016-12-21T09:05:31.611Z,1884
2016-12-21T09:06:31.575Z,1868
2016-12-21T09:07:31.837Z,1880
2016-12-21T09:08:31.779Z,1944
2016-12-21T09:09:31.449Z,1948
2016-12-21T09:10:31.098Z,1976
2016-12-21T09:11:31.662Z,1920
2016-12-21T09:12:30.710Z,1892
2016-12-21T09:13:31.275Z,1908
2016-12-21T09:14:30.926Z,1984
2016-12-21T09:15:31.492Z,2008
2016-12-21T09:16:31.444Z,2000
2016-12-21T09:17:31.411Z,2040
2016-12-21T09:18:31.370Z,2104
2016-12-21T09:19:30.723Z,2160
2016-12-21T09:20:30.977Z,2144
2016-12-21T09:21:31.239Z,2064
2016-12-21T09:22:30.936Z,2068
2016-12-21T09:23:30.547Z,2148
2016-12-21T09:24:30.508Z,2272
2016-12-21T09:25:31.066Z,2368
2016-12-21T09:26:31.024Z,2348
2016-12-21T09:27:30.380Z,2252
2016-12-21T09:28:30.947Z,2284
2016-12-21T09:29:30.902Z,2348
2016-12-21T09:30:30.862Z,2336
2016-12-21T09:31:30.824Z,2348
2016-12-21T09:32:30.476Z,2324
2016-12-21T09:33:30.432Z,2308
2016-12-21T09:34:30.694Z,2288
2016-12-21T09:35:30.646Z,2272
2016-12-21T09:36:30.600Z,2248
2016-12-21T09:37:29.962Z,2264
2016-12-21T09:38:30.222Z,2344
2016-12-21T09:39:30.192Z,2420
2016-12-21T09:40:29.842Z,2452
2016-12-21T09:41:30.399Z,2448
2016-12-21T09:42:30.356Z,2512
2016-12-21T09:43:30.016Z,2616
2016-12-21T09:44:30.273Z,2656
2016-12-21T09:45:30.237Z,2604
2016-12-21T09:46:30.199Z,2584
2016-12-21T09:47:30.147Z,2700
2016-12-21T09:48:30.103Z,2792
2016-12-21T09:49:29.485Z,2756
2016-12-21T09:50:29.423Z,2672
2016-12-21T09:51:29.985Z,2672
2016-12-21T09:52:29.936Z,2780
2016-12-21T09:53:29.901Z,2868
2016-12-21T09:54:29.248Z,2864
2016-12-21T09:55:29.824Z,2852
2016-12-21T09:56:29.773Z,2884
2016-12-21T09:57:29.737Z,2896
2016-12-21T09:58:29.383Z,2864
2016-12-21T09:59:29.346Z,2824
2016-12-21T10:00:29.007Z,2860
2016-12-21T10:01:29.265Z,2984
2016-12-21T10:02:29.219Z,3136
2016-12-21T10:03:29.181Z,3204
2016-12-21T10:04:29.446Z,3176
2016-12-21T10:05:29.094Z,3080
2016-12-21T10:06:29.052Z,3004
2016-12-21T10:07:29.310Z,2936
2016-12-21T10:08:28.967Z,2900
2016-12-21T10:09:28.928Z,2988
2016-12-21T10:10:28.284Z,3084
2016-12-21T10:11:29.139Z,3044
2016-12-21T10:12:28.804Z,2976
2016-12-21T10:13:28.753Z,3004
2016-12-21T10:14:29.025Z,3048
2016-12-21T10:15:28.682Z,3040
2016-12-21T10:16:28.637Z,3112
2016-12-21T10:17:28.897Z,3080
2016-12-21T10:18:28.551Z,3024
2016-12-21T10:19:28.542Z,3020
2016-12-21T10:20:28.163Z,2980
2016-12-21T10:21:28.429Z,3040
2016-12-21T10:22:28.399Z,3144
2016-12-21T10:23:28.345Z,3228
2016-12-21T10:24:28.613Z,3220
2016-12-21T10:25:28.563Z,3252
2016-12-21T10:26:28.226Z,3336
2016-12-21T10:27:28.180Z,3344
2016-12-21T10:28:28.442Z,3296
2016-12-21T10:29:28.402Z,3296
2016-12-21T10:30:28.054Z,3228
2016-12-21T10:31:28.018Z,3268
2016-12-21T10:32:27.972Z,3336
2016-12-21T10:33:27.938Z,3308
2016-12-21T10:34:27.284Z,3352
2016-12-21T10:35:27.851Z,3420
2016-12-21T10:36:28.113Z,3476
2016-12-21T10:37:28.069Z,3512
2016-12-21T10:38:28.023Z,3512
2016-12-21T10:39:27.985Z,3456
2016-12-21T10:40:27.644Z,3388
2016-12-21T10:41:27.604Z,3456
2016-12-21T10:42:27.559Z,3744
2016-12-21T10:43:27.524Z,3772
2016-12-21T10:44:27.474Z,3648
2016-12-21T10:45:27.738Z,3604
2016-12-21T10:46:27.392Z,3620
2016-12-21T10:47:27.656Z,3560
2016-12-21T10:48:27.646Z,3488
2016-12-21T10:49:27.275Z,3440
2016-12-21T10:50:27.559Z,3404
2016-12-21T10:51:27.201Z,3384
2016-12-21T10:52:27.142Z,3344
2016-12-21T10:53:27.411Z,3368
2016-12-21T10:54:27.092Z,3464
2016-12-21T10:55:27.046Z,3596
2016-12-21T10:56:26.678Z,3644
2016-12-21T10:57:26.951Z,3556
2016-12-21T10:58:27.200Z,3440
2016-12-21T10:59:26.855Z,3364
2016-12-21T11:00:27.134Z,3372
2016-12-21T11:01:27.074Z,3468
2016-12-21T11:02:27.036Z,3536
2016-12-21T11:03:26.693Z,3552
2016-12-21T11:04:26.648Z,3572
2016-12-21T11:05:26.307Z,3660
2016-12-21T11:06:26.267Z,3764
2016-12-21T11:07:26.239Z,3800
2016-12-21T11:08:26.183Z,3804
2016-12-21T11:09:26.746Z,3748
2016-12-21T11:10:26.099Z,3776
2016-12-21T11:11:26.361Z,3780
2016-12-21T11:12:26.626Z,3808
2016-12-21T11:13:26.580Z,3820
2016-12-21T11:14:26.235Z,3708
2016-12-21T11:15:26.497Z,3652
2016-12-21T11:16:26.162Z,3756
2016-12-21T11:17:26.114Z,3828
2016-12-21T11:18:26.373Z,3828
2016-12-21T11:19:26.329Z,3840
2016-12-21T11:20:25.995Z,3836
2016-12-21T11:21:25.644Z,3840
2016-12-21T11:22:26.211Z,3880
2016-12-21T11:23:26.174Z,3908
2016-12-21T11:24:26.123Z,3908
2016-12-21T11:25:25.785Z,3888
2016-12-21T11:26:26.052Z,3904
2016-12-21T11:27:25.702Z,3896
2016-12-21T11:28:25.959Z,3828
2016-12-21T11:29:25.920Z,3824
2016-12-21T11:30:25.880Z,3852
2016-12-21T11:31:25.534Z,3820
2016-12-21T11:32:25.797Z,3752
2016-12-21T11:33:25.753Z,3688
2016-12-21T11:34:25.710Z,3672
2016-12-21T11:35:25.368Z,3668
2016-12-21T11:36:25.330Z,3692
2016-12-21T11:37:25.296Z,3704
2016-12-21T11:38:24.946Z,3672
2016-12-21T11:39:25.212Z,3600
2016-12-21T11:40:25.160Z,3572
2016-12-21T11:41:25.424Z,3584
2016-12-21T11:42:25.387Z,3572
2016-12-21T11:43:25.037Z,3576
2016-12-21T11:44:25.306Z,3692
2016-12-21T11:45:24.660Z,3812
2016-12-21T11:46:24.920Z,3848
2016-12-21T11:47:25.179Z,3892
2016-12-21T11:48:24.539Z,3900
2016-12-21T11:49:24.497Z,3820
2016-12-21T11:50:24.456Z,3708
2016-12-21T11:51:25.022Z,3620
2016-12-21T11:52:24.977Z,3608
2016-12-21T11:53:24.936Z,3636
2016-12-21T11:54:24.890Z,3664
2016-12-21T11:55:24.856Z,3724
2016-12-21T11:56:24.511Z,3788
2016-12-21T11:57:24.772Z,3880
2016-12-21T11:58:24.727Z,3960
2016-12-21T11:59:24.686Z,3960
2016-12-21T12:00:24.645Z,3832
2016-12-21T12:01:24.007Z,3636
2016-12-21T12:02:24.265Z,3544
2016-12-21T12:03:24.526Z,3552
2016-12-21T12:04:24.179Z,3616
2016-12-21T12:05:24.136Z,3740
2016-12-21T12:06:24.096Z,3872
2016-12-21T12:07:24.058Z,3960
2016-12-21T12:08:24.020Z,3900
2016-12-21T12:09:23.672Z,3808
2016-12-21T12:10:23.633Z,3772
2016-12-21T12:11:24.196Z,3732
2016-12-21T12:12:23.860Z,3628
2016-12-21T12:13:24.112Z,3532
2016-12-21T12:14:24.069Z,3532
2016-12-21T12:15:23.429Z,3596
2016-12-21T12:16:23.386Z,3612
2016-12-21T12:17:23.943Z,3600
2016-12-21T12:18:23.909Z,3576
2016-12-21T12:19:23.562Z,3536
2016-12-21T12:20:23.528Z,3512
2016-12-21T12:21:23.783Z,3576
2016-12-21T12:22:23.738Z,3692
2016-12-21T12:23:23.395Z,3792
2016-12-21T12:24:23.060Z,3804
2016-12-21T12:25:23.320Z,3756
2016-12-21T12:26:23.580Z,3624
2016-12-21T12:27:22.933Z,3484
2016-12-21T12:28:23.201Z,3348
2016-12-21T12:29:22.858Z,3284
2016-12-21T12:30:23.409Z,3320
2016-12-21T12:31:23.373Z,3368
2016-12-21T12:32:23.035Z,3292
2016-12-21T12:33:23.299Z,3192
2016-12-21T12:34:23.251Z,3172
2016-12-21T12:35:22.904Z,3220
2016-12-21T12:36:23.199Z,3276
2016-12-21T12:37:22.834Z,3300
2016-12-21T12:38:22.783Z,3272
2016-12-21T12:39:23.051Z,3196
2016-12-21T12:40:23.015Z,3128
2016-12-21T12:41:22.674Z,3080
2016-12-21T12:42:22.316Z,3076
2016-12-21T12:43:22.579Z,3144
2016-12-21T12:44:22.837Z,3264
2016-12-21T12:45:22.790Z,3424
2016-12-21T12:46:22.449Z,3588
2016-12-21T12:47:22.113Z,3744
2016-12-21T12:48:22.670Z,3780
2016-12-21T12:49:22.030Z,3660
2016-12-21T12:50:22.286Z,3496
2016-12-21T12:51:21.942Z,3380
2016-12-21T12:52:22.204Z,3376
2016-12-21T12:53:21.895Z,3464
2016-12-21T12:54:22.123Z,3496
2016-12-21T12:55:22.390Z,3404
2016-12-21T12:56:21.737Z,3268
2016-12-21T12:57:22.300Z,3196
2016-12-21T12:58:21.659Z,3172
2016-12-21T12:59:21.922Z,3136
2016-12-21T13:00:21.873Z,3120
2016-12-21T13:01:22.145Z,3152
2016-12-21T13:02:22.094Z,3100
2016-12-21T13:03:21.449Z,2916
2016-12-21T13:04:21.709Z,2788
2016-12-21T13:05:21.664Z,2784
2016-12-21T13:06:21.949Z,2864
2016-12-21T13:07:21.582Z,2896
2016-12-21T13:08:21.543Z,2832
2016-12-21T13:09:21.810Z,2800
2016-12-21T13:10:21.769Z,2868
2016-12-21T13:11:21.716Z,2956
2016-12-21T13:12:21.375Z,2996
2016-12-21T13:13:21.639Z,2992
2016-12-21T13:14:21.599Z,3064
2016-12-21T13:15:21.251Z,3236
2016-12-21T13:16:21.523Z,3288
2016-12-21T13:17:21.485Z,3100
2016-12-21T13:18:20.827Z,2888
2016-12-21T13:19:20.785Z,2784
2016-12-21T13:20:21.342Z,2792
2016-12-21T13:21:21.001Z,2900
2016-12-21T13:22:20.959Z,3076
2016-12-21T13:23:20.931Z,3216
2016-12-21T13:24:20.885Z,3168
2016-12-21T13:25:20.839Z,2972
2016-12-21T13:26:21.095Z,2844
2016-12-21T13:27:20.757Z,2844
2016-12-21T13:28:20.710Z,2904
2016-12-21T13:29:20.976Z,2968
2016-12-21T13:30:20.932Z,3012
2016-12-21T13:31:20.290Z,3020
2016-12-21T13:32:20.546Z,2976
2016-12-21T13:33:20.816Z,2896
2016-12-21T13:34:20.187Z,2804
2016-12-21T13:35:20.121Z,2696
2016-12-21T13:36:20.380Z,2568
2016-12-21T13:37:20.650Z,2452
2016-12-21T13:38:20.615Z,2360
2016-12-21T13:39:19.954Z,2332
2016-12-21T13:40:19.913Z,2396
2016-12-21T13:41:20.176Z,2432
2016-12-21T13:42:20.136Z,2388
2016-12-21T13:43:20.088Z,2368
2016-12-21T13:44:20.046Z,2412
2016-12-21T13:45:20.310Z,2484
2016-12-21T13:46:19.963Z,2508
2016-12-21T13:47:19.926Z,2456
2016-12-21T13:48:19.878Z,2424
2016-12-21T13:49:20.139Z,2364
2016-12-21T13:50:20.098Z,2240
2016-12-21T13:51:19.758Z,2176
2016-12-21T13:52:19.707Z,2172
2016-12-21T13:53:19.981Z,2112
2016-12-21T13:54:19.621Z,2028
2016-12-21T13:55:19.582Z,2000
2016-12-21T13:56:19.856Z,1980
2016-12-21T13:57:19.803Z,1912
2016-12-21T13:58:19.458Z,1844
2016-12-21T13:59:19.726Z,1848
2016-12-21T14:00:19.679Z,1872
2016-12-21T14:01:19.034Z,1840
2016-12-21T14:02:19.289Z,1764
2016-12-21T14:03:18.945Z,1712